TimeCDT,TemperatureF,Dew PointF,Humidity,Sea Level PressureIn,VisibilityMPH,Wind Direction,Wind SpeedMPH,Gust SpeedMPH,PrecipitationIn,Events,Conditions,WindDirDegrees,DateUTC
12:15 AM,32.0,21.2,64,30.20,10.0,NNE,5.8,-,N/A,,Clear,30,2012-10-30 05:15:00
12:35 AM,32.0,21.2,64,30.20,10.0,NNE,5.8,-,N/A,,Clear,30,2012-10-30 05:35:00
12:55 AM,32.0,21.2,64,30.19,10.0,NNE,5.8,-,N/A,,Clear,30,2012-10-30 05:55:00
1:15 AM,32.0,21.2,64,30.19,10.0,NNE,4.6,-,N/A,,Clear,20,2012-10-30 06:15:00
1:35 AM,32.0,21.2,64,30.19,10.0,North,5.8,-,N/A,,Clear,10,2012-10-30 06:35:00
1:55 AM,32.0,21.2,64,30.18,10.0,North,3.5,-,N/A,,Clear,10,2012-10-30 06:55:00
2:15 AM,32.0,21.2,64,30.18,10.0,NNE,4.6,-,N/A,,Clear,20,2012-10-30 07:15:00
2:35 AM,32.0,21.2,64,30.18,10.0,North,5.8,-,N/A,,Clear,10,2012-10-30 07:35:00
2:55 AM,32.0,21.2,64,30.17,10.0,North,4.6,-,N/A,,Clear,10,2012-10-30 07:55:00
3:15 AM,32.0,21.2,64,30.16,10.0,NNE,4.6,-,N/A,,Clear,20,2012-10-30 08:15:00
3:35 AM,32.0,21.2,64,30.16,10.0,North,5.8,-,N/A,,Clear,360,2012-10-30 08:35:00
3:55 AM,32.0,21.2,64,30.15,10.0,North,4.6,-,N/A,,Clear,360,2012-10-30 08:55:00
4:15 AM,32.0,21.2,64,30.15,10.0,North,5.8,-,N/A,,Clear,10,2012-10-30 09:15:00
4:35 AM,30.2,21.2,69,30.15,10.0,North,6.9,-,N/A,,Clear,360,2012-10-30 09:35:00
4:55 AM,32.0,21.2,64,30.15,10.0,North,8.1,-,N/A,,Clear,360,2012-10-30 09:55:00
5:15 AM,30.2,21.2,69,30.15,10.0,North,4.6,-,N/A,,Clear,10,2012-10-30 10:15:00
5:35 AM,30.2,21.2,69,30.15,10.0,North,6.9,-,N/A,,Clear,10,2012-10-30 10:35:00
5:55 AM,30.2,21.2,69,30.14,10.0,North,5.8,-,N/A,,Clear,10,2012-10-30 10:55:00
6:15 AM,30.2,21.2,69,30.14,10.0,North,6.9,-,N/A,,Clear,10,2012-10-30 11:15:00
6:55 AM,28.4,21.2,74,30.14,10.0,North,8.1,-,N/A,,Clear,10,2012-10-30 11:55:00
7:15 AM,28.4,21.2,74,30.13,10.0,North,3.5,-,N/A,,Clear,360,2012-10-30 12:15:00
7:55 AM,28.4,21.2,74,30.13,10.0,NNW,6.9,-,N/A,,Clear,340,2012-10-30 12:55:00
8:15 AM,28.4,23.0,80,30.13,10.0,North,6.9,-,N/A,,Clear,350,2012-10-30 13:15:00
8:35 AM,32.0,23.0,69,30.12,10.0,North,6.9,-,N/A,,Clear,350,2012-10-30 13:35:00
8:55 AM,33.8,26.6,75,30.12,10.0,North,9.2,-,N/A,,Clear,360,2012-10-30 13:55:00
9:15 AM,35.6,24.8,65,30.12,10.0,North,11.5,-,N/A,,Clear,360,2012-10-30 14:15:00
9:35 AM,35.6,24.8,65,30.12,10.0,North,11.5,-,N/A,,Clear,360,2012-10-30 14:35:00
9:55 AM,37.4,26.6,65,30.12,10.0,North,15.0,20.7,N/A,,Clear,10,2012-10-30 14:55:00
10:15 AM,37.4,26.6,65,30.11,10.0,North,16.1,-,N/A,,Clear,10,2012-10-30 15:15:00
10:35 AM,41.0,26.6,57,30.10,10.0,North,17.3,-,N/A,,Clear,10,2012-10-30 15:35:00
10:55 AM,41.0,24.8,53,30.09,10.0,North,18.4,24.2,N/A,,Clear,360,2012-10-30 15:55:00
11:15 AM,42.8,26.6,53,30.09,10.0,North,18.4,-,N/A,,Clear,360,2012-10-30 16:15:00
11:35 AM,42.8,24.8,49,30.08,10.0,North,16.1,25.3,N/A,,Clear,10,2012-10-30 16:35:00
11:55 AM,42.8,23.0,46,30.08,10.0,North,18.4,-,N/A,,Clear,350,2012-10-30 16:55:00
12:15 PM,44.6,23.0,43,30.07,10.0,North,15.0,24.2,N/A,,Clear,350,2012-10-30 17:15:00
12:35 PM,44.6,23.0,43,30.06,10.0,North,17.3,23.0,N/A,,Clear,360,2012-10-30 17:35:00
12:55 PM,46.4,21.2,37,30.05,10.0,North,15.0,21.9,N/A,,Clear,350,2012-10-30 17:55:00
1:15 PM,46.4,21.2,37,30.04,10.0,North,15.0,25.3,N/A,,Clear,360,2012-10-30 18:15:00
1:35 PM,46.4,21.2,37,30.02,10.0,North,17.3,21.9,N/A,,Clear,360,2012-10-30 18:35:00
1:55 PM,46.4,17.6,32,30.01,10.0,North,16.1,-,N/A,,Clear,350,2012-10-30 18:55:00
2:15 PM,50.0,19.4,30,30.00,10.0,NNW,13.8,19.6,N/A,,Clear,330,2012-10-30 19:15:00
2:35 PM,48.2,19.4,32,29.99,10.0,NNW,16.1,21.9,N/A,,Clear,330,2012-10-30 19:35:00
2:55 PM,50.0,15.8,26,29.98,10.0,North,17.3,20.7,N/A,,Clear,350,2012-10-30 19:55:00
3:15 PM,50.0,19.4,30,29.98,10.0,NNW,16.1,21.9,N/A,,Clear,340,2012-10-30 20:15:00
3:35 PM,50.0,17.6,28,29.98,10.0,NNW,17.3,20.7,N/A,,Clear,330,2012-10-30 20:35:00
3:55 PM,50.0,19.4,30,29.97,10.0,NNW,16.1,21.9,N/A,,Clear,330,2012-10-30 20:55:00
4:15 PM,48.2,17.6,30,29.97,10.0,North,16.1,23.0,N/A,,Clear,350,2012-10-30 21:15:00
4:35 PM,48.2,17.6,30,29.98,10.0,North,18.4,-,N/A,,Clear,350,2012-10-30 21:35:00
4:55 PM,46.4,19.4,34,29.97,10.0,NNW,17.3,24.2,N/A,,Clear,340,2012-10-30 21:55:00
5:15 PM,46.4,19.4,34,29.97,10.0,North,15.0,-,N/A,,Clear,350,2012-10-30 22:15:00
5:35 PM,44.6,21.2,39,29.97,10.0,North,10.4,13.8,N/A,,Clear,350,2012-10-30 22:35:00
5:55 PM,42.8,21.2,42,29.97,10.0,North,8.1,-,N/A,,Clear,360,2012-10-30 22:55:00
6:15 PM,41.0,23.0,49,29.97,10.0,North,6.9,-,N/A,,Clear,360,2012-10-30 23:15:00
6:35 PM,39.2,23.0,52,29.97,10.0,North,10.4,-,N/A,,Clear,360,2012-10-30 23:35:00
6:55 PM,39.2,23.0,52,29.98,10.0,North,11.5,-,N/A,,Clear,350,2012-10-30 23:55:00
7:15 PM,37.4,23.0,56,29.98,10.0,North,8.1,-,N/A,,Clear,350,2012-10-31 00:15:00
7:35 PM,37.4,23.0,56,29.98,10.0,North,9.2,-,N/A,,Clear,350,2012-10-31 00:35:00
7:55 PM,35.6,23.0,60,29.99,10.0,North,10.4,-,N/A,,Clear,350,2012-10-31 00:55:00
8:15 PM,33.8,23.0,65,29.99,10.0,North,9.2,-,N/A,,Clear,350,2012-10-31 01:15:00
8:35 PM,35.6,23.0,60,29.99,10.0,North,8.1,-,N/A,,Clear,350,2012-10-31 01:35:00
8:55 PM,33.8,23.0,65,29.98,10.0,North,9.2,-,N/A,,Clear,360,2012-10-31 01:55:00
9:15 PM,33.8,23.0,65,29.97,10.0,North,9.2,-,N/A,,Clear,350,2012-10-31 02:15:00
9:35 PM,32.0,23.0,69,29.97,10.0,North,8.1,-,N/A,,Clear,360,2012-10-31 02:35:00
9:55 PM,32.0,23.0,69,29.97,10.0,NNW,6.9,-,N/A,,Clear,340,2012-10-31 02:55:00
10:35 PM,32.0,23.0,69,29.97,10.0,NNW,9.2,-,N/A,,Clear,340,2012-10-31 03:35:00
10:55 PM,32.0,23.0,69,29.97,10.0,NNW,11.5,-,N/A,,Clear,340,2012-10-31 03:55:00
11:15 PM,30.2,23.0,75,29.97,10.0,NNW,9.2,-,N/A,,Clear,330,2012-10-31 04:15:00
11:35 PM,30.2,23.0,75,29.96,10.0,NNW,9.2,-,N/A,,Clear,330,2012-10-31 04:35:00
11:55 PM,30.2,23.0,75,29.96,10.0,NNW,8.1,-,N/A,,Clear,340,2012-10-31 04:55:00